Time;durP1;ratioP1;P1;durP2;ratioP2;P2;SDS_P1;SDS_P2;PMS_P1;PMS_P2;Temp;Humidity;BMP_temperature;BMP_pressure;BME280_temperature;BME280_humidity;BME280_pressure;Samples;Min_cycle;Max_cycle;Signal;HPM_P1;HPM_P2
2023/12/25 00:02:19;;;;;;;3.33;3.03;;;;;;;15.74;67.56;100420.47;5005831;28;107503;-73
2023/12/25 00:04:46;;;;;;;3.60;3.10;;;;;;;15.74;67.44;100420.47;5011908;28;107682;-73
2023/12/25 00:07:14;;;;;;;3.53;3.13;;;;;;;15.74;67.37;100425.81;5005465;28;124525;-73
2023/12/25 00:09:41;;;;;;;3.78;2.80;;;;;;;15.73;67.18;100434.81;5002271;28;123733;-73
2023/12/25 00:12:08;;;;;;;3.72;2.85;;;;;;;15.73;67.24;100429.47;4994517;28;107750;-73
2023/12/25 00:14:36;;;;;;;3.67;2.78;;;;;;;15.72;67.35;100443.75;5000190;28;106994;-73
2023/12/25 00:17:03;;;;;;;2.80;2.33;;;;;;;15.71;67.41;100436.72;5011285;28;124723;-73
2023/12/25 00:19:30;;;;;;;3.60;2.75;;;;;;;15.71;67.21;100442.06;5006434;28;124763;-73
2023/12/25 00:21:58;;;;;;;3.78;2.85;;;;;;;15.72;67.31;100438.41;5009533;28;107296;-73
2023/12/25 00:24:25;;;;;;;3.55;2.92;;;;;;;15.73;67.36;100445.50;5013800;28;107904;-73
2023/12/25 00:26:52;;;;;;;3.65;2.97;;;;;;;15.73;67.50;100423.25;5011341;28;124621;-73
2023/12/25 00:29:19;;;;;;;2.80;2.60;;;;;;;15.71;67.16;100426.03;5009060;28;123751;-73
2023/12/25 00:31:47;;;;;;;3.78;2.80;;;;;;;15.71;67.55;100426.03;4978799;28;107108;-73
2023/12/25 00:34:15;;;;;;;4.30;3.20;;;;;;;15.71;67.46;100415.34;5013097;28;106707;-73
2023/12/25 00:36:42;;;;;;;3.60;3.25;;;;;;;15.70;67.54;100424.31;5004503;28;124342;-73
2023/12/25 00:39:11;;;;;;;3.40;3.05;;;;;;;15.71;67.42;100415.34;5009015;28;123741;-73
2023/12/25 00:41:39;;;;;;;4.38;3.30;;;;;;;15.71;67.19;100420.69;5014412;28;107809;-73
2023/12/25 00:44:07;;;;;;;3.45;3.15;;;;;;;15.71;67.37;100420.69;4999850;28;107318;-73
2023/12/25 00:46:35;;;;;;;3.15;2.85;;;;;;;15.70;67.39;100418.97;5012947;28;124394;-73
2023/12/25 00:49:02;;;;;;;3.10;2.80;;;;;;;15.70;67.43;100418.13;4996966;28;123121;-73
2023/12/25 00:51:29;;;;;;;3.42;2.75;;;;;;;15.69;67.56;100433.31;5008089;28;107928;-72
2023/12/25 00:54:00;;;;;;;3.63;2.90;;;;;;;15.68;67.55;100442.28;5012839;28;107175;-73
2023/12/25 00:56:27;;;;;;;4.47;2.83;;;;;;;15.65;67.40;100453.19;5012034;28;123778;-73
2023/12/25 00:58:55;;;;;;;3.00;2.70;;;;;;;15.63;67.35;100444.41;5003252;28;123112;-73
2023/12/25 01:01:22;;;;;;;2.70;2.45;;;;;;;15.63;67.48;100449.75;5000311;28;107374;-73
2023/12/25 01:03:50;;;;;;;3.25;2.60;;;;;;;15.62;67.60;100448.06;4997453;28;106384;-73
2023/12/25 01:06:17;;;;;;;3.42;2.83;;;;;;;15.61;67.69;100446.34;4998632;28;124118;-73
2023/12/25 01:08:46;;;;;;;3.90;2.75;;;;;;;15.60;67.65;100450.00;5003519;28;124082;-74
2023/12/25 01:11:14;;;;;;;4.07;2.85;;;;;;;15.61;67.64;100451.69;5009205;28;109478;-73
2023/12/25 01:13:42;;;;;;;3.83;3.25;;;;;;;15.60;67.49;100455.34;4999402;28;107610;-74
2023/12/25 01:16:09;;;;;;;4.47;3.28;;;;;;;15.61;67.51;100456.19;5002165;28;124383;-73
2023/12/25 01:18:36;;;;;;;3.85;3.30;;;;;;;15.59;67.66;100448.28;5008918;28;122951;-74
2023/12/25 01:21:04;;;;;;;5.65;3.58;;;;;;;15.60;67.70;100452.66;5001417;28;109422;-73
2023/12/25 01:23:32;;;;;;;4.15;3.25;;;;;;;15.60;67.53;100467.84;5020026;28;109159;-73
2023/12/25 01:25:59;;;;;;;4.72;3.42;;;;;;;15.61;67.54;100462.38;4996362;28;123861;-73
2023/12/25 01:28:26;;;;;;;4.72;3.50;;;;;;;15.62;67.65;100458.75;5005407;28;124165;-72
2023/12/25 01:30:54;;;;;;;4.85;3.58;;;;;;;15.63;67.58;100460.44;5000244;28;109611;-73
2023/12/25 01:33:22;;;;;;;4.95;3.67;;;;;;;15.66;67.63;100470.91;5000021;28;109222;-73
2023/12/25 01:35:50;;;;;;;5.07;3.90;;;;;;;15.67;67.48;100472.63;4991463;28;124148;-73
2023/12/25 01:38:17;;;;;;;5.10;3.88;;;;;;;15.68;67.40;100471.63;4999068;28;123508;-73
2023/12/25 01:40:45;;;;;;;4.88;4.05;;;;;;;15.69;67.43;100470.69;5003564;28;108215;-74
2023/12/25 01:43:12;;;;;;;5.72;4.10;;;;;;;15.70;67.21;100469.72;4996155;28;109017;-74
2023/12/25 01:45:40;;;;;;;4.50;4.00;;;;;;;15.71;67.41;100467.91;5007341;28;123112;-74
2023/12/25 01:48:09;;;;;;;5.47;3.70;;;;;;;15.72;67.38;100470.44;4998173;28;123733;-74
2023/12/25 01:50:37;;;;;;;5.80;3.90;;;;;;;15.73;67.36;100469.53;5002632;28;109939;-74
2023/12/25 01:53:10;;;;;;;6.80;4.28;;;;;;;15.73;67.42;100477.53;5012502;28;109044;-74
2023/12/25 01:55:38;;;;;;;5.10;3.90;;;;;;;15.74;67.27;100473.88;4997029;28;124306;-74
2023/12/25 01:58:08;;;;;;;4.95;3.88;;;;;;;15.76;67.33;100479.13;5006544;28;122797;-74
2023/12/25 02:00:35;;;;;;;4.38;3.72;;;;;;;15.77;67.27;100481.69;5013243;28;107258;-73
2023/12/25 02:03:03;;;;;;;6.00;3.90;;;;;;;15.77;67.21;100484.34;5007888;28;108155;-73
2023/12/25 02:05:30;;;;;;;5.07;3.85;;;;;;;15.79;67.19;100480.75;5009172;28;124504;-73
2023/12/25 02:07:58;;;;;;;4.85;3.80;;;;;;;15.81;67.08;100473.47;5003095;28;123775;-73
2023/12/25 02:10:27;;;;;;;5.15;3.70;;;;;;;15.81;66.90;100484.16;5011495;28;110263;-74
2023/12/25 02:12:55;;;;;;;4.70;3.90;;;;;;;15.83;66.99;100482.22;5019458;28;110404;-74
2023/12/25 02:15:22;;;;;;;5.57;3.95;;;;;;;15.83;66.83;100471.53;5012740;28;124426;-73
2023/12/25 02:17:51;;;;;;;4.32;3.92;;;;;;;15.83;67.00;100487.56;5014120;28;124024;-73
2023/12/25 02:20:20;;;;;;;4.25;3.85;;;;;;;15.84;66.86;100483.91;5001257;28;108721;-73
2023/12/25 02:22:49;;;;;;;5.68;3.95;;;;;;;15.84;66.94;100484.78;5004755;28;109553;-74
2023/12/25 02:25:30;;;;;;;7.95;4.50;;;;;;;15.84;66.84;100481.22;5005380;28;124181;-74
2023/12/25 02:27:57;;;;;;;5.20;4.10;;;;;;;15.83;66.86;100482.22;5009404;28;124053;-74
2023/12/25 02:30:25;;;;;;;4.63;3.92;;;;;;;15.85;66.77;100496.31;5008198;28;108912;-74
2023/12/25 02:32:52;;;;;;;5.55;4.32;;;;;;;15.85;66.82;100490.97;5015140;28;108183;-74
2023/12/25 02:35:20;;;;;;;5.75;4.47;;;;;;;15.85;66.82;100496.31;5002659;28;124117;-74
2023/12/25 02:37:48;;;;;;;7.25;5.10;;;;;;;15.85;67.14;100490.97;4991074;28;122957;-73
2023/12/25 02:40:15;;;;;;;6.07;5.05;;;;;;;15.85;66.81;100501.66;5005502;28;109424;-74
2023/12/25 02:42:42;;;;;;;6.50;4.95;;;;;;;15.85;66.79;100501.66;5004645;28;108163;-74
2023/12/25 02:45:10;;;;;;;8.30;5.13;;;;;;;15.86;66.83;100498.00;5002961;28;123033;-74
2023/12/25 02:47:37;;;;;;;9.13;4.90;;;;;;;15.86;66.81;100498.00;5007133;28;122906;-74
2023/12/25 02:50:04;;;;;;;6.45;4.88;;;;;;;15.87;66.68;100505.06;5010872;28;108430;-73
2023/12/25 02:52:32;;;;;;;6.60;4.43;;;;;;;15.88;66.83;100506.75;5008095;28;109044;-73
2023/12/25 02:54:59;;;;;;;7.07;4.88;;;;;;;15.89;66.61;100503.13;5015885;28;124367;-73
2023/12/25 02:57:28;;;;;;;5.60;4.70;;;;;;;15.89;66.60;100508.47;5015595;28;123592;-72
2023/12/25 02:59:55;;;;;;;7.38;5.00;;;;;;;15.88;66.51;100506.75;5006445;28;109580;-73
2023/12/25 03:02:24;;;;;;;6.30;4.70;;;;;;;15.88;66.62;100501.41;5006523;28;110516;-73
2023/12/25 03:04:51;;;;;;;5.97;4.50;;;;;;;15.88;66.51;100496.06;4999117;28;123670;-72
2023/12/25 03:07:18;;;;;;;8.23;5.13;;;;;;;15.90;66.45;100504.84;5003250;28;123131;-72
2023/12/25 03:09:45;;;;;;;7.53;4.65;;;;;;;15.90;66.63;100499.50;4998890;28;108331;-72
2023/12/25 03:12:13;;;;;;;6.43;4.80;;;;;;;15.89;66.31;100493.28;5003592;28;107839;-72
2023/12/25 03:14:40;;;;;;;5.97;4.65;;;;;;;15.92;66.27;100497.56;5004625;28;123843;-72
2023/12/25 03:17:08;;;;;;;9.63;5.00;;;;;;;15.92;66.46;100492.22;5009182;28;124567;-72
2023/12/25 03:19:36;;;;;;;6.00;4.50;;;;;;;15.92;66.36;100486.88;5011151;28;108787;-72
2023/12/25 03:22:03;;;;;;;6.20;4.30;;;;;;;15.93;66.36;100488.56;5010407;28;108237;-72
2023/12/25 03:24:32;;;;;;;5.43;3.90;;;;;;;15.94;66.28;100495.63;5001408;28;123566;-72
2023/12/25 03:26:59;;;;;;;5.18;3.72;;;;;;;15.95;66.26;100491.97;4999608;28;124216;-72
2023/12/25 03:29:26;;;;;;;5.43;3.78;;;;;;;15.95;66.13;100513.34;5010185;28;109341;-73
2023/12/25 03:31:53;;;;;;;5.78;4.10;;;;;;;15.98;66.08;100518.47;4998476;28;109473;-73
2023/12/25 03:34:21;;;;;;;5.25;3.97;;;;;;;15.98;66.12;100518.47;5003380;28;123066;-73
2023/12/25 03:36:50;;;;;;;6.65;4.15;;;;;;;15.98;66.07;100518.47;5000114;28;123852;-73
2023/12/25 03:39:17;;;;;;;6.05;3.95;;;;;;;16.01;65.97;100518.25;5004354;28;110442;-73
2023/12/25 03:41:44;;;;;;;7.07;4.30;;;;;;;16.01;65.91;100523.63;5006211;28;108819;-73
2023/12/25 03:44:12;;;;;;;5.05;4.10;;;;;;;16.01;65.95;100523.63;5005760;28;124163;-73
2023/12/25 03:46:39;;;;;;;4.90;4.13;;;;;;;16.03;65.79;100532.38;5003902;28;124340;-73
2023/12/25 03:49:06;;;;;;;5.20;3.85;;;;;;;16.02;65.92;100525.28;4995184;28;109468;-73
2023/12/25 03:51:35;;;;;;;5.68;4.15;;;;;;;16.03;65.70;100527.03;5005720;28;110242;-73
2023/12/25 03:54:02;;;;;;;6.80;3.88;;;;;;;16.03;65.68;100527.03;5010577;28;124860;-73
2023/12/25 03:56:33;;;;;;;6.22;4.20;;;;;;;16.04;65.72;100534.06;4998623;28;124213;-73
2023/12/25 03:59:02;;;;;;;5.88;4.30;;;;;;;16.05;65.71;100538.44;5037608;27;108617;-73
2023/12/25 04:01:30;;;;;;;5.65;4.18;;;;;;;16.06;65.67;100545.47;5016464;28;108240;-73
2023/12/25 04:03:58;;;;;;;5.68;4.18;;;;;;;16.05;65.66;100525.09;5000850;28;124140;-73
2023/12/25 04:06:26;;;;;;;4.85;3.97;;;;;;;16.06;65.66;100529.44;5010871;28;123592;-73
2023/12/25 04:08:53;;;;;;;5.65;4.20;;;;;;;16.06;65.67;100526.78;5003429;28;108699;-73
2023/12/25 04:11:22;;;;;;;5.63;4.15;;;;;;;16.04;65.71;100534.06;5010435;28;108204;-73
2023/12/25 04:13:55;;;;;;;5.22;4.32;;;;;;;16.02;65.62;100535.97;5010466;28;123241;-73
2023/12/25 04:16:25;;;;;;;6.43;4.90;;;;;;;15.99;65.63;100536.19;4981864;28;123366;-73
2023/12/25 04:18:53;;;;;;;8.25;5.55;;;;;;;15.98;65.87;100529.16;4994120;28;109467;-73
2023/12/25 04:21:22;;;;;;;7.25;5.78;;;;;;;15.98;65.80;100518.47;5006441;28;108619;-73
2023/12/25 04:23:55;;;;;;;8.60;5.60;;;;;;;15.98;65.91;100520.31;5004332;28;124467;-73
2023/12/25 04:26:23;;;;;;;6.95;5.60;;;;;;;15.96;65.82;100509.72;5008763;28;125280;-73
2023/12/25 04:28:53;;;;;;;6.68;5.45;;;;;;;15.95;66.01;100513.34;4993155;28;109939;-73
2023/12/25 04:31:21;;;;;;;6.68;4.95;;;;;;;15.94;65.84;100509.00;4988148;28;106621;-73
2023/12/25 04:33:48;;;;;;;8.00;5.53;;;;;;;15.93;65.96;100523.28;5007716;28;123767;-74
2023/12/25 04:36:17;;;;;;;6.47;5.20;;;;;;;15.90;66.14;100515.53;5008814;28;122940;-73
2023/12/25 04:38:44;;;;;;;5.88;5.28;;;;;;;15.89;66.00;100508.47;4996756;28;110673;-73
2023/12/25 04:41:12;;;;;;;7.15;5.45;;;;;;;15.88;66.23;100512.97;5002131;28;108850;-73
2023/12/25 04:43:40;;;;;;;6.20;5.60;;;;;;;15.87;66.08;100526.41;5007059;28;123083;-74
2023/12/25 04:46:08;;;;;;;7.22;5.45;;;;;;;15.84;66.16;100524.84;5005647;28;122952;-73
2023/12/25 04:48:37;;;;;;;7.93;5.60;;;;;;;15.83;66.24;100524.94;4999782;28;108287;-73
2023/12/25 04:51:04;;;;;;;8.00;5.90;;;;;;;15.81;66.35;100527.72;5006961;28;108867;-74
2023/12/25 04:53:33;;;;;;;7.35;5.60;;;;;;;15.80;66.30;100519.81;5010897;28;123703;-74
2023/12/25 04:56:01;;;;;;;6.32;5.55;;;;;;;15.76;66.33;100517.38;5003009;28;123900;-73
2023/12/25 04:58:28;;;;;;;7.03;5.78;;;;;;;15.75;66.47;100507.66;4994412;28;109260;-74
2023/12/25 05:00:57;;;;;;;7.75;5.55;;;;;;;15.73;66.67;100511.38;4999863;28;108473;-74
2023/12/25 05:03:25;;;;;;;5.72;4.75;;;;;;;15.73;66.58;100522.06;5007294;28;123359;-73
2023/12/25 05:05:52;;;;;;;7.55;4.95;;;;;;;15.70;66.74;100515.09;5003487;28;123946;-73
2023/12/25 05:08:20;;;;;;;6.05;4.90;;;;;;;15.68;66.66;100501.00;5013290;28;108972;-73
2023/12/25 05:10:47;;;;;;;5.53;4.85;;;;;;;15.66;66.65;100513.63;5012006;28;109292;-73
2023/12/25 05:13:15;;;;;;;5.82;4.68;;;;;;;15.63;66.84;100505.81;5011257;28;124087;-74
2023/12/25 05:15:42;;;;;;;4.88;3.95;;;;;;;15.61;66.87;100510.41;5008453;28;123458;-73
2023/12/25 05:18:10;;;;;;;4.55;3.80;;;;;;;15.59;66.96;100517.69;5009589;28;108416;-73
2023/12/25 05:20:37;;;;;;;4.53;3.90;;;;;;;15.57;66.93;100503.59;5001044;28;109187;-73
2023/12/25 05:23:04;;;;;;;4.93;3.85;;;;;;;15.55;66.99;100517.03;5011724;28;124606;-73
2023/12/25 05:25:32;;;;;;;4.72;3.92;;;;;;;15.54;67.13;100510.00;5010214;28;123911;-74
2023/12/25 05:27:59;;;;;;;4.47;3.83;;;;;;;15.52;67.14;100511.06;5014447;28;109785;-73
2023/12/25 05:30:27;;;;;;;3.78;2.80;;;;;;;15.51;67.16;100525.41;5004578;28;109506;-73
2023/12/25 05:32:54;;;;;;;3.40;2.53;;;;;;;15.48;67.18;100514.91;5007209;28;124113;-73
2023/12/25 05:35:21;;;;;;;3.08;2.13;;;;;;;15.46;67.25;100511.50;5009256;28;123750;-74
2023/12/25 05:37:49;;;;;;;2.08;1.02;;;;;;;15.43;67.18;100517.09;5014092;28;109443;-74
2023/12/25 05:40:16;;;;;;;1.98;0.90;;;;;;;15.37;67.09;100529.88;5007160;28;109189;-74
2023/12/25 05:42:44;;;;;;;1.70;0.77;;;;;;;15.30;67.01;100536.63;5014566;28;124361;-74
2023/12/25 05:45:11;;;;;;;1.48;0.60;;;;;;;15.25;66.99;100529.88;5008572;28;123943;-75
2023/12/25 05:47:39;;;;;;;1.13;0.60;;;;;;;15.20;66.88;100522.22;5015881;28;109958;-75
2023/12/25 05:50:09;;;;;;;1.60;0.68;;;;;;;15.13;66.86;100526.28;5004150;28;108673;-75
2023/12/25 05:52:38;;;;;;;0.98;0.60;;;;;;;15.06;67.13;100525.81;5006340;28;124140;-76
2023/12/25 05:55:05;;;;;;;2.88;0.63;;;;;;;15.03;66.98;100533.19;4998891;28;124252;-75
2023/12/25 05:57:33;;;;;;;2.75;0.75;;;;;;;14.98;67.19;100529.03;5004992;28;109225;-75
2023/12/25 06:00:01;;;;;;;1.60;0.80;;;;;;;14.95;67.38;100523.88;5007556;28;107943;-75
2023/12/25 06:02:38;;;;;;;2.55;0.60;;;;;;;14.94;67.33;100524.03;5009634;28;124554;-75
2023/12/25 06:05:06;;;;;;;1.60;0.80;;;;;;;14.92;67.39;100529.44;5015736;28;123919;-76
2023/12/25 06:07:34;;;;;;;1.20;0.82;;;;;;;14.92;67.55;100533.94;5014994;28;109189;-76
2023/12/25 06:10:02;;;;;;;1.42;0.70;;;;;;;14.91;67.50;100530.41;5011820;28;108834;-75
2023/12/25 06:12:30;;;;;;;2.00;1.10;;;;;;;14.93;67.72;100541.81;5007774;28;123896;-75
2023/12/25 06:14:57;;;;;;;2.85;1.90;;;;;;;14.95;67.83;100528.38;5005236;28;124532;-75
2023/12/25 06:17:25;;;;;;;3.03;2.38;;;;;;;14.97;67.96;100537.13;5013310;28;109425;-75
2023/12/25 06:19:52;;;;;;;4.57;3.00;;;;;;;14.97;67.93;100543.34;5013191;28;109883;-75
2023/12/25 06:22:20;;;;;;;2.83;2.33;;;;;;;15.00;68.14;100531.59;5005892;28;125067;-76
2023/12/25 06:24:47;;;;;;;3.20;2.70;;;;;;;15.02;68.38;100539.50;5003670;28;123765;-76
2023/12/25 06:27:15;;;;;;;4.03;2.63;;;;;;;15.04;68.26;100537.56;5015449;28;109193;-75
2023/12/25 06:29:42;;;;;;;3.20;2.63;;;;;;;15.06;68.32;100546.31;5008931;28;109004;-76
2023/12/25 06:32:13;;;;;;;1.55;1.15;;;;;;;15.08;68.23;100544.41;5002527;28;123797;-76
2023/12/25 06:34:40;;;;;;;1.10;0.70;;;;;;;15.08;68.05;100549.72;5002829;28;123950;-75
2023/12/25 06:37:08;;;;;;;0.57;0.40;;;;;;;15.02;68.02;100558.16;5004720;28;109722;-76
2023/12/25 06:39:35;;;;;;;0.52;0.35;;;;;;;14.95;67.89;100561.22;5005023;28;109175;-76
2023/12/25 06:42:03;;;;;;;0.70;0.47;;;;;;;14.88;67.79;100559.06;5008445;28;123890;-75
2023/12/25 06:44:30;;;;;;;1.25;0.30;;;;;;;14.80;67.68;100567.59;5011249;28;123757;-75
2023/12/25 06:46:57;;;;;;;0.30;0.30;;;;;;;14.72;67.71;100564.59;5006344;28;109591;-75
2023/12/25 06:49:24;;;;;;;0.30;0.30;;;;;;;14.63;67.51;100567.88;5004572;28;109414;-75
2023/12/25 06:51:52;;;;;;;0.40;0.40;;;;;;;14.56;67.73;100570.94;5006303;28;124393;-74
2023/12/25 06:54:19;;;;;;;1.13;0.30;;;;;;;14.48;67.76;100578.56;5013347;28;122761;-75
2023/12/25 06:56:46;;;;;;;2.60;0.43;;;;;;;14.44;67.63;100574.38;5014181;28;109642;-76
2023/12/25 06:59:14;;;;;;;0.80;0.40;;;;;;;14.39;67.80;100589.81;5009614;28;109328;-74
2023/12/25 07:01:43;;;;;;;0.82;0.47;;;;;;;14.34;67.75;100591.94;5012677;28;123108;-74
2023/12/25 07:04:11;;;;;;;0.90;0.50;;;;;;;14.29;67.71;100588.72;5003599;28;122713;-73
2023/12/25 07:06:38;;;;;;;1.88;0.60;;;;;;;14.25;67.75;100581.88;5009867;28;110503;-74
2023/12/25 07:09:07;;;;;;;0.82;0.50;;;;;;;14.18;67.67;100590.28;5010858;28;109989;-74
2023/12/25 07:11:34;;;;;;;2.28;0.60;;;;;;;14.13;67.68;100584.38;5011232;28;123484;-74
2023/12/25 07:14:01;;;;;;;2.08;0.50;;;;;;;14.09;67.88;100577.53;5006657;28;123875;-75
2023/12/25 07:16:29;;;;;;;2.03;0.60;;;;;;;14.05;67.86;100586.66;4996530;28;107756;-75
2023/12/25 07:18:56;;;;;;;1.48;0.50;;;;;;;14.01;67.84;100585.16;5000519;28;109436;-75
2023/12/25 07:21:23;;;;;;;4.20;0.80;;;;;;;13.97;67.85;100579.16;5001063;28;123952;-75
2023/12/25 07:23:52;;;;;;;0.85;0.50;;;;;;;13.94;67.81;100597.16;5009737;28;124193;-76
2023/12/25 07:26:20;;;;;;;0.65;0.47;;;;;;;13.92;67.80;100593.72;5014401;28;109460;-74
2023/12/25 07:28:53;;;;;;;3.90;0.68;;;;;;;13.87;67.99;100594.00;5002509;28;108717;-75
2023/12/25 07:31:23;;;;;;;2.05;0.60;;;;;;;13.85;67.80;100597.72;5001505;28;124886;-75
2023/12/25 07:33:51;;;;;;;1.55;0.50;;;;;;;13.82;68.00;100596.97;5005308;28;124346;-75
2023/12/25 07:36:20;;;;;;;0.70;0.40;;;;;;;13.81;67.99;100595.25;4999013;28;109694;-74
2023/12/25 07:38:48;;;;;;;0.80;0.40;;;;;;;13.80;67.93;100603.34;5001409;28;109221;-74
2023/12/25 07:41:15;;;;;;;0.88;0.40;;;;;;;13.78;67.78;100611.41;4996673;28;123102;-74
2023/12/25 07:43:42;;;;;;;0.98;0.40;;;;;;;13.77;67.81;100615.03;5004386;28;124180;-74
2023/12/25 07:46:10;;;;;;;1.30;0.45;;;;;;;13.76;67.88;100608.00;5000987;28;109530;-75
2023/12/25 07:48:37;;;;;;;1.42;0.47;;;;;;;13.74;67.84;100609.88;5014077;28;108430;-75
2023/12/25 07:51:06;;;;;;;0.60;0.35;;;;;;;13.73;67.87;100610.84;5007104;28;125074;-74
2023/12/25 07:53:33;;;;;;;1.70;0.50;;;;;;;13.72;67.86;100613.63;5001107;28;123903;-74
2023/12/25 07:56:01;;;;;;;0.70;0.32;;;;;;;13.69;67.72;100622.63;5013959;28;110355;-74
2023/12/25 07:58:28;;;;;;;1.20;0.50;;;;;;;13.66;67.82;100617.50;5003330;28;109597;-74
2023/12/25 08:00:55;;;;;;;1.55;0.43;;;;;;;13.67;67.88;100624.53;5001025;28;124168;-74
2023/12/25 08:03:22;;;;;;;0.65;0.40;;;;;;;13.68;67.81;100626.25;4994492;28;124704;-73
2023/12/25 08:05:50;;;;;;;0.82;0.50;;;;;;;13.68;67.81;100631.56;5010412;28;109055;-74
2023/12/25 08:08:17;;;;;;;0.32;0.30;;;;;;;13.66;67.92;100628.16;5005091;28;108582;-75
2023/12/25 08:10:45;;;;;;;1.55;0.40;;;;;;;13.65;67.96;100626.44;5011732;28;124895;-74
2023/12/25 08:13:16;;;;;;;2.58;0.40;;;;;;;13.67;67.90;100629.84;5011153;28;123438;-74
2023/12/25 08:15:43;;;;;;;0.35;0.32;;;;;;;13.70;67.84;100624.34;4993031;28;109878;-75
2023/12/25 08:18:11;;;;;;;0.88;0.35;;;;;;;13.71;67.73;100617.22;4993523;28;108670;-75
2023/12/25 08:20:39;;;;;;;1.70;0.40;;;;;;;13.72;68.04;100649.06;5001530;28;124336;-75
2023/12/25 08:23:07;;;;;;;1.00;0.30;;;;;;;13.71;67.88;100647.38;5002400;28;123881;-75
2023/12/25 08:25:34;;;;;;;0.40;0.40;;;;;;;13.73;67.80;100656.09;5013998;28;108336;-75
2023/12/25 08:28:01;;;;;;;3.72;0.50;;;;;;;13.74;67.94;100647.16;5008675;28;108376;-76
2023/12/25 08:30:29;;;;;;;1.23;0.35;;;;;;;13.74;67.87;100639.16;5006571;28;124529;-75
2023/12/25 08:32:56;;;;;;;0.47;0.40;;;;;;;13.77;67.88;100640.81;5011621;28;124257;-74
2023/12/25 08:35:24;;;;;;;2.22;0.40;;;;;;;13.79;67.83;100650.41;5005995;28;108223;-74
2023/12/25 08:37:52;;;;;;;1.88;0.40;;;;;;;13.80;68.00;100649.44;5014932;28;108606;-74
2023/12/25 08:40:19;;;;;;;0.55;0.40;;;;;;;13.82;67.98;100654.66;4999326;28;124805;-74
2023/12/25 08:42:47;;;;;;;0.52;0.40;;;;;;;13.84;67.93;100658.09;5000724;28;123885;-75
2023/12/25 08:45:16;;;;;;;1.75;0.40;;;;;;;13.83;67.97;100651.91;5002450;28;110376;-74
2023/12/25 08:47:43;;;;;;;0.52;0.30;;;;;;;13.85;68.13;100653.63;4997453;28;109729;-74
2023/12/25 08:50:11;;;;;;;1.05;0.40;;;;;;;13.86;67.94;100660.66;4999318;28;124400;-74
2023/12/25 08:52:38;;;;;;;0.40;0.40;;;;;;;13.87;67.99;100657.06;4997569;28;124317;-74
2023/12/25 08:55:06;;;;;;;3.25;0.40;;;;;;;13.90;67.94;100667.50;5005775;28;109337;-75
2023/12/25 08:57:35;;;;;;;1.83;0.45;;;;;;;13.91;67.84;100671.88;5013872;28;108448;-75
2023/12/25 09:00:06;;;;;;;0.52;0.40;;;;;;;13.92;67.72;100666.47;4998248;28;123230;-74
2023/12/25 09:02:34;;;;;;;1.75;0.47;;;;;;;13.93;67.85;100668.16;4994037;28;123798;-75
2023/12/25 09:05:02;;;;;;;1.02;0.50;;;;;;;13.94;67.62;100669.06;4995209;28;109037;-74
2023/12/25 09:07:33;;;;;;;0.60;0.45;;;;;;;13.95;67.78;100660.09;5005446;28;108532;-74
2023/12/25 09:10:02;;;;;;;0.80;0.40;;;;;;;13.98;67.83;100675.88;5005373;28;124111;-75
2023/12/25 09:12:30;;;;;;;1.05;0.38;;;;;;;13.98;67.87;100675.88;5000734;28;123316;-75
2023/12/25 09:14:57;;;;;;;1.60;0.30;;;;;;;13.98;67.93;100682.06;4994812;28;109143;-75
2023/12/25 09:17:28;;;;;;;1.50;0.40;;;;;;;14.00;67.91;100676.66;5004253;28;108172;-75
2023/12/25 09:19:56;;;;;;;1.13;0.52;;;;;;;14.01;67.83;100686.31;4997153;28;124117;-75
2023/12/25 09:22:27;;;;;;;1.20;0.63;;;;;;;14.02;67.92;100685.41;5003369;28;124017;-74
2023/12/25 09:24:54;;;;;;;0.82;0.50;;;;;;;14.04;67.84;100701.28;5001000;28;109232;-74
2023/12/25 09:27:21;;;;;;;0.85;0.60;;;;;;;14.05;67.91;100703.81;5001393;28;108484;-75
2023/12/25 09:29:49;;;;;;;1.95;0.60;;;;;;;14.06;67.77;100704.69;4994693;28;123763;-75
2023/12/25 09:32:16;;;;;;;2.42;0.85;;;;;;;14.06;67.86;100710.88;5002401;28;124412;-75
2023/12/25 09:34:44;;;;;;;1.75;0.80;;;;;;;14.06;67.91;100716.19;5005327;28;110689;-75
2023/12/25 09:37:25;;;;;;;1.95;0.73;;;;;;;14.08;67.97;100735.59;4997674;28;109826;-76
2023/12/25 09:39:53;;;;;;;2.15;0.50;;;;;;;14.06;67.74;100737.50;5006655;28;123201;-76
2023/12/25 09:42:21;;;;;;;1.13;0.57;;;;;;;14.06;67.84;100737.50;5005376;28;124174;-75
2023/12/25 09:44:50;;;;;;;1.35;0.50;;;;;;;14.05;67.91;100735.78;5005889;28;109354;-74
2023/12/25 09:47:18;;;;;;;1.35;0.45;;;;;;;14.06;67.88;100732.19;5006695;28;108964;-75
2023/12/25 09:49:50;;;;;;;0.70;0.50;;;;;;;14.05;68.03;100733.13;4990683;28;123236;-75
2023/12/25 09:52:17;;;;;;;1.30;0.50;;;;;;;14.06;67.97;100726.84;5000043;28;124514;-76
2023/12/25 09:54:45;;;;;;;2.65;0.60;;;;;;;14.06;67.87;100721.53;4991489;28;109516;-76
2023/12/25 09:57:15;;;;;;;1.63;0.43;;;;;;;14.07;67.83;100717.94;4992515;28;109160;-75
2023/12/25 09:59:44;;;;;;;0.70;0.43;;;;;;;14.06;68.04;100721.53;5001889;28;124263;-75
2023/12/25 10:02:13;;;;;;;1.70;0.40;;;;;;;14.07;67.95;100717.06;4991170;28;124825;-75
2023/12/25 10:04:44;;;;;;;1.48;0.50;;;;;;;14.07;67.92;100723.25;4994034;28;109281;-76
2023/12/25 10:07:11;;;;;;;1.45;0.50;;;;;;;14.08;68.07;100708.97;5011437;28;109749;-76
2023/12/25 10:09:40;;;;;;;0.60;0.47;;;;;;;14.08;68.04;100714.31;5003460;28;123999;-77
2023/12/25 10:12:08;;;;;;;3.35;0.70;;;;;;;14.08;68.07;100703.66;4998347;28;124570;-76
2023/12/25 10:14:35;;;;;;;2.00;0.55;;;;;;;14.10;67.98;100704.41;5015205;28;109170;-76
2023/12/25 10:17:03;;;;;;;0.90;0.40;;;;;;;14.12;68.11;100704.31;5010695;28;109287;-76
2023/12/25 10:19:32;;;;;;;1.02;0.50;;;;;;;14.14;68.09;100708.59;5006116;28;122678;-76
2023/12/25 10:21:59;;;;;;;1.83;0.60;;;;;;;14.15;68.02;100715.63;5006498;28;124269;-76
2023/12/25 10:24:29;;;;;;;2.85;0.50;;;;;;;14.14;67.96;100719.25;5010563;28;109786;-79
2023/12/25 10:27:02;;;;;;;2.28;0.68;;;;;;;14.15;68.11;100720.97;4997191;28;109954;-77
2023/12/25 10:29:36;;;;;;;1.58;0.68;;;;;;;14.14;68.05;100724.56;4997218;28;123874;-77
2023/12/25 10:32:18;;;;;;;1.27;0.60;;;;;;;14.13;68.05;100733.53;5005915;28;124183;-78
2023/12/25 10:34:46;;;;;;;1.25;0.57;;;;;;;14.14;67.78;100724.56;4997700;28;108892;-78
2023/12/25 10:37:15;;;;;;;0.40;0.30;;;;;;;14.14;68.08;100729.88;5002630;28;108647;-77
2023/12/25 10:39:42;;;;;;;1.23;0.60;;;;;;;14.12;68.09;100734.47;5006775;28;123856;-78
2023/12/25 10:42:12;;;;;;;0.57;0.50;;;;;;;14.11;68.04;100740.75;5001490;28;124867;-77
2023/12/25 10:44:46;;;;;;;1.00;0.60;;;;;;;14.11;67.99;100735.44;5009897;28;109006;-77
2023/12/25 10:47:14;;;;;;;1.75;0.50;;;;;;;14.12;68.18;100731.78;5006267;28;108926;-77
2023/12/25 10:49:45;;;;;;;1.58;0.60;;;;;;;14.10;68.13;100728.38;4996125;28;123954;-77
2023/12/25 10:52:13;;;;;;;1.02;0.50;;;;;;;14.09;68.01;100721.34;5001207;28;125182;-76
2023/12/25 10:54:45;;;;;;;1.10;0.50;;;;;;;14.08;68.18;100706.31;4994177;28;110246;-78
2023/12/25 10:57:16;;;;;;;2.15;0.50;;;;;;;14.08;68.08;100698.31;5005267;28;108882;-78
2023/12/25 10:59:44;;;;;;;2.40;0.60;;;;;;;14.08;68.17;100690.34;5012644;28;123779;-78
2023/12/25 11:02:13;;;;;;;1.15;0.60;;;;;;;14.08;68.07;100703.66;4998417;28;124433;-78
2023/12/25 11:04:46;;;;;;;1.38;0.50;;;;;;;14.10;68.15;100698.22;5005135;28;108785;-78
2023/12/25 11:07:16;;;;;;;1.65;0.60;;;;;;;14.09;68.08;100700.03;5006335;28;109180;-78
2023/12/25 11:09:48;;;;;;;1.17;0.63;;;;;;;14.09;68.04;100704.50;5007701;28;123715;-77
2023/12/25 11:12:18;;;;;;;2.42;0.70;;;;;;;14.09;68.08;100710.69;4999825;28;123540;-77
2023/12/25 11:14:47;;;;;;;1.40;0.65;;;;;;;14.08;68.08;100722.28;5011164;28;110190;-78
2023/12/25 11:17:15;;;;;;;0.88;0.60;;;;;;;14.06;68.04;100732.19;5000599;28;109999;-77
2023/12/25 11:19:46;;;;;;;0.93;0.60;;;;;;;14.05;68.02;100727.78;4995008;28;124444;-78
2023/12/25 11:22:28;;;;;;;2.03;0.50;;;;;;;14.03;67.99;100727.03;5011744;28;125244;-77